Time;durP1;ratioP1;P1;durP2;ratioP2;P2;SDS_P1;SDS_P2;PMS_P1;PMS_P2;Temp;Humidity;BMP_temperature;BMP_pressure;BME280_temperature;BME280_humidity;BME280_pressure;Samples;Min_cycle;Max_cycle;Signal;HPM_P1;HPM_P2
2022/02/12 00:01:09;;;;;;;6.78;4.30;;;6.50;75.30;;;;;;5000409;28;20743;-84
2022/02/12 00:03:35;;;;;;;7.85;4.50;;;6.50;75.30;;;;;;4980620;28;20022;-84
2022/02/12 00:06:01;;;;;;;6.03;4.18;;;6.40;75.30;;;;;;5000900;28;20058;-85
2022/02/12 00:08:27;;;;;;;7.18;3.97;;;6.40;75.30;;;;;;4991475;28;20036;-85
2022/02/12 00:10:52;;;;;;;6.70;3.97;;;6.40;75.30;;;;;;4984013;28;20422;-84
2022/02/12 00:13:18;;;;;;;6.65;4.25;;;6.40;75.30;;;;;;4981258;28;20034;-84
2022/02/12 00:15:44;;;;;;;6.97;4.15;;;6.30;75.30;;;;;;5011753;28;20036;-85
2022/02/12 00:18:10;;;;;;;7.55;4.10;;;6.30;75.30;;;;;;4981048;28;20041;-84
2022/02/12 00:20:36;;;;;;;6.32;4.63;;;6.30;75.30;;;;;;4993945;28;20037;-84
2022/02/12 00:23:02;;;;;;;6.65;4.43;;;6.30;75.30;;;;;;4983406;28;20026;-86
2022/02/12 00:25:28;;;;;;;6.43;4.15;;;6.20;75.30;;;;;;5010742;28;20505;-84
2022/02/12 00:27:54;;;;;;;7.40;4.57;;;6.20;75.30;;;;;;4981017;28;20054;-85
2022/02/12 00:30:20;;;;;;;5.80;3.80;;;6.20;75.30;;;;;;5007900;28;20038;-84
2022/02/12 00:32:45;;;;;;;7.93;4.65;;;6.20;75.30;;;;;;4983168;28;20029;-85
2022/02/12 00:35:11;;;;;;;6.60;4.05;;;6.10;75.30;;;;;;4994249;28;20478;-85
2022/02/12 00:37:37;;;;;;;6.30;4.25;;;6.10;75.30;;;;;;4973079;28;20120;-84
2022/02/12 00:40:03;;;;;;;7.30;4.05;;;6.10;75.30;;;;;;4991961;28;20474;-84
2022/02/12 00:42:29;;;;;;;6.25;4.20;;;6.10;75.40;;;;;;5022364;28;20028;-84
2022/02/12 00:44:55;;;;;;;8.38;4.75;;;6.00;75.30;;;;;;5007359;28;20506;-84
2022/02/12 00:47:22;;;;;;;6.45;4.10;;;6.00;75.30;;;;;;5011166;28;20029;-84
2022/02/12 00:49:48;;;;;;;6.97;4.18;;;6.00;75.30;;;;;;4985476;28;20028;-84
2022/02/12 00:52:14;;;;;;;6.78;4.28;;;6.00;75.30;;;;;;4995288;28;20034;-84
2022/02/12 00:54:40;;;;;;;6.90;4.07;;;6.00;75.30;;;;;;4978741;28;20045;-84
2022/02/12 00:57:06;;;;;;;6.80;4.28;;;5.90;75.30;;;;;;4994996;28;20038;-85
2022/02/12 00:59:32;;;;;;;7.00;4.20;;;5.90;75.30;;;;;;4979721;28;20030;-85
2022/02/12 01:01:58;;;;;;;6.55;4.00;;;5.90;75.30;;;;;;5005825;28;20397;-87
2022/02/12 01:04:24;;;;;;;7.57;4.35;;;5.90;75.30;;;;;;4998505;28;20040;-84
2022/02/12 01:06:52;;;;;;;6.05;4.25;;;5.80;75.30;;;;;;4948802;28;20486;-85
2022/02/12 01:09:18;;;;;;;8.07;4.50;;;5.80;75.30;;;;;;4978867;28;20037;-84
2022/02/12 01:11:44;;;;;;;5.75;3.95;;;5.80;75.40;;;;;;4984975;28;20763;-84
2022/02/12 01:14:12;;;;;;;6.65;4.40;;;5.80;75.30;;;;;;4971225;28;20100;-84
2022/02/12 01:16:39;;;;;;;6.10;4.10;;;5.80;75.40;;;;;;4988323;28;20057;-84
2022/02/12 01:19:05;;;;;;;8.10;4.25;;;5.70;75.30;;;;;;4989154;28;20041;-83
2022/02/12 01:21:30;;;;;;;6.50;3.97;;;5.70;75.30;;;;;;4990204;28;20030;-83
2022/02/12 01:23:56;;;;;;;6.53;4.15;;;5.70;75.30;;;;;;4984276;28;20109;-84
2022/02/12 01:26:22;;;;;;;6.50;4.40;;;5.70;75.40;;;;;;4998594;28;20030;-84
2022/02/12 01:28:48;;;;;;;6.95;4.15;;;5.60;75.30;;;;;;4987869;28;20049;-83
2022/02/12 01:31:14;;;;;;;6.75;4.57;;;5.60;75.30;;;;;;4987805;28;20444;-84
2022/02/12 01:33:40;;;;;;;6.95;4.43;;;5.60;75.30;;;;;;4989594;28;20034;-84
2022/02/12 01:36:06;;;;;;;6.90;4.43;;;5.50;75.30;;;;;;4999351;28;20581;-83
2022/02/12 01:38:31;;;;;;;8.35;4.75;;;5.50;76.00;;;;;;4982421;28;20044;-84
2022/02/12 01:40:57;;;;;;;6.88;4.20;;;5.50;75.30;;;;;;4999241;28;20038;-84
2022/02/12 01:43:23;;;;;;;6.40;4.22;;;5.50;75.40;;;;;;4989025;28;20045;-83
2022/02/12 01:45:50;;;;;;;7.38;4.20;;;5.50;75.40;;;;;;5003878;28;20458;-83
2022/02/12 01:48:17;;;;;;;6.13;3.90;;;5.40;75.30;;;;;;5023253;28;20018;-83
2022/02/12 01:50:45;;;;;;;6.63;4.03;;;5.40;75.30;;;;;;4997802;28;20033;-84
2022/02/12 01:53:12;;;;;;;6.97;4.15;;;5.40;75.40;;;;;;4989484;28;20141;-83
2022/02/12 01:55:37;;;;;;;6.53;4.53;;;5.40;75.40;;;;;;4973197;28;20053;-83
2022/02/12 01:58:06;;;;;;;7.65;4.93;;;5.40;75.40;;;;;;5013308;28;20069;-85
2022/02/12 02:00:32;;;;;;;6.22;4.38;;;5.40;75.40;;;;;;4994412;28;20034;-84
2022/02/12 02:02:58;;;;;;;6.63;4.28;;;5.30;75.30;;;;;;4973538;28;20034;-84
2022/02/12 02:05:24;;;;;;;7.20;4.20;;;5.30;75.30;;;;;;4990986;28;20092;-84
2022/02/12 02:07:51;;;;;;;6.07;4.10;;;5.30;75.40;;;;;;4987247;28;20390;-83
2022/02/12 02:10:17;;;;;;;6.25;4.25;;;5.30;75.40;;;;;;4998336;28;20636;-84
2022/02/12 02:12:43;;;;;;;6.55;4.30;;;5.20;75.30;;;;;;5002638;28;20116;-84
2022/02/12 02:15:09;;;;;;;7.05;4.30;;;5.20;75.30;;;;;;4994519;28;20057;-83
2022/02/12 02:17:36;;;;;;;7.20;4.20;;;5.20;75.30;;;;;;4989531;28;20482;-83
2022/02/12 02:20:07;;;;;;;7.05;4.43;;;5.20;75.40;;;;;;5002239;28;20498;-83
2022/02/12 02:22:53;;;;;;;6.63;4.20;;;5.10;75.30;;;;;;5006720;28;20034;-83
2022/02/12 02:25:19;;;;;;;7.00;4.55;;;5.10;75.40;;;;;;5025021;28;20037;-83
2022/02/12 02:27:45;;;;;;;5.30;3.92;;;5.10;75.30;;;;;;4998565;28;20069;-84
2022/02/12 02:30:20;;;;;;;8.40;4.72;;;5.10;75.30;;;;;;4983652;28;20125;-86
2022/02/12 02:32:46;;;;;;;6.25;4.03;;;5.10;75.40;;;;;;5013047;28;20030;-83
2022/02/12 02:35:15;;;;;;;7.60;4.50;;;5.00;75.30;;;;;;4997865;28;20470;-83
2022/02/12 02:37:44;;;;;;;6.32;4.30;;;5.00;75.40;;;;;;4991401;28;20049;-83
2022/02/12 02:40:12;;;;;;;6.82;4.05;;;5.00;75.40;;;;;;4992664;28;20430;-83
2022/02/12 02:42:43;;;;;;;6.72;4.03;;;5.00;75.40;;;;;;5009457;28;20447;-82
2022/02/12 02:45:10;;;;;;;5.78;3.92;;;5.00;75.40;;;;;;5000036;28;20418;-83
2022/02/12 02:47:44;;;;;;;6.80;5.00;;;4.90;75.40;;;;;;5009922;28;20470;-83
2022/02/12 02:56:01;;;;;;;5.95;4.28;;;4.90;75.40;;;;;;5017725;28;20026;-84
2022/02/12 02:58:44;;;;;;;6.20;3.90;;;4.80;75.40;;;;;;4996135;28;20072;-84
2022/02/12 03:01:13;;;;;;;6.68;4.47;;;4.80;75.50;;;;;;4989810;28;20386;-83
2022/02/12 03:03:40;;;;;;;6.10;4.43;;;4.80;75.40;;;;;;5023899;28;20105;-83
2022/02/12 03:06:07;;;;;;;6.78;4.25;;;4.80;75.50;;;;;;4985711;28;20025;-83
2022/02/12 03:08:34;;;;;;;6.28;4.32;;;4.70;75.50;;;;;;4997208;28;20100;-82
2022/02/12 03:11:00;;;;;;;6.55;4.38;;;4.70;75.50;;;;;;5012981;28;20037;-83
2022/02/12 03:13:27;;;;;;;6.03;4.03;;;4.70;75.40;;;;;;5000163;28;20022;-84
2022/02/12 03:15:53;;;;;;;6.57;4.38;;;4.60;75.40;;;;;;5003639;28;20112;-84
2022/02/12 03:18:18;;;;;;;6.93;4.03;;;4.70;75.50;;;;;;5002938;28;20057;-84
2022/02/12 03:20:44;;;;;;;6.68;4.20;;;4.70;75.40;;;;;;4985475;28;20065;-83
2022/02/12 03:23:11;;;;;;;6.22;4.47;;;4.70;75.40;;;;;;5004540;28;20030;-83
2022/02/12 03:25:37;;;;;;;6.78;4.35;;;4.70;75.40;;;;;;5039534;28;20524;-84
2022/02/12 03:28:04;;;;;;;6.28;4.72;;;4.60;75.40;;;;;;5001212;28;20493;-82
2022/02/12 03:30:40;;;;;;;7.47;4.35;;;4.60;75.40;;;;;;4988504;28;20506;-82
2022/02/12 03:33:07;;;;;;;8.80;4.68;;;4.60;75.50;;;;;;5017687;28;20466;-84
2022/02/12 03:35:35;;;;;;;7.22;4.00;;;4.60;75.40;;;;;;4988250;28;20033;-84
2022/02/12 03:38:09;;;;;;;6.47;4.07;;;4.60;75.50;;;;;;4999720;28;20038;-84
2022/02/12 03:40:36;;;;;;;6.70;4.57;;;4.50;75.40;;;;;;5005756;28;20036;-84
2022/02/12 03:43:03;;;;;;;7.50;4.20;;;4.50;75.40;;;;;;4956696;28;20029;-84
2022/02/12 03:45:29;;;;;;;7.03;4.22;;;4.50;75.40;;;;;;4999956;28;20060;-84
2022/02/12 03:47:54;;;;;;;7.10;4.43;;;4.50;75.40;;;;;;5012453;28;20037;-82
2022/02/12 03:50:21;;;;;;;5.93;4.03;;;4.50;75.40;;;;;;4975126;28;20028;-84
2022/02/12 03:52:49;;;;;;;6.95;4.40;;;4.50;75.50;;;;;;4990007;28;20026;-84
2022/02/12 03:55:16;;;;;;;6.72;4.55;;;4.40;75.40;;;;;;4979217;28;20513;-84
2022/02/12 03:57:42;;;;;;;7.32;4.13;;;4.40;75.40;;;;;;5007847;28;20116;-84
2022/02/12 04:00:11;;;;;;;5.97;4.10;;;4.40;75.40;;;;;;4980268;28;20387;-83
2022/02/12 04:02:41;;;;;;;7.15;4.65;;;4.40;75.50;;;;;;4991999;28;20026;-84
2022/02/12 04:05:08;;;;;;;6.28;4.10;;;4.40;75.50;;;;;;4996796;28;20471;-83
2022/02/12 04:07:38;;;;;;;6.53;4.10;;;4.40;75.50;;;;;;5004666;28;20032;-84
2022/02/12 04:10:16;;;;;;;6.88;4.25;;;4.30;75.40;;;;;;4992739;28;20033;-83
2022/02/12 04:12:43;;;;;;;6.05;3.83;;;4.30;75.40;;;;;;4999749;28;20064;-84
2022/02/12 04:15:11;;;;;;;6.22;4.25;;;4.30;75.40;;;;;;5000288;28;20068;-84
2022/02/12 04:17:37;;;;;;;5.25;3.85;;;4.30;75.40;;;;;;4992496;28;20030;-84
2022/02/12 04:20:09;;;;;;;5.07;3.90;;;4.30;75.50;;;;;;4988115;28;20076;-84
2022/02/12 04:22:35;;;;;;;5.72;4.07;;;4.30;75.60;;;;;;5010042;28;20033;-84
2022/02/12 04:25:03;;;;;;;7.07;4.18;;;4.20;75.40;;;;;;5012711;28;20026;-84
2022/02/12 04:27:29;;;;;;;5.38;3.85;;;4.20;75.50;;;;;;5003432;28;20077;-83
2022/02/12 04:29:56;;;;;;;6.40;4.43;;;4.30;75.50;;;;;;4982947;28;20386;-84
2022/02/12 04:32:22;;;;;;;5.38;3.58;;;4.20;75.50;;;;;;4983793;28;20025;-83
2022/02/12 04:34:50;;;;;;;7.30;4.38;;;4.20;75.50;;;;;;4993456;28;20026;-84
2022/02/12 04:37:18;;;;;;;6.75;4.43;;;4.20;75.50;;;;;;4992172;28;20038;-83
2022/02/12 04:39:45;;;;;;;5.72;4.13;;;4.20;75.50;;;;;;4993303;28;20029;-84
2022/02/12 04:42:14;;;;;;;6.50;4.05;;;4.10;75.50;;;;;;4994737;28;20048;-84
2022/02/12 04:44:41;;;;;;;6.50;3.75;;;4.20;75.50;;;;;;5019022;28;20041;-84
2022/02/12 04:47:08;;;;;;;6.22;4.32;;;4.10;75.50;;;;;;4992986;28;20113;-83
2022/02/12 04:49:34;;;;;;;6.88;3.92;;;4.10;75.50;;;;;;5007633;28;20034;-84
2022/02/12 04:52:01;;;;;;;5.65;3.78;;;4.10;75.50;;;;;;5011000;28;20067;-84
2022/02/12 04:54:26;;;;;;;5.15;3.90;;;4.10;75.50;;;;;;4994036;28;20021;-83
2022/02/12 04:56:52;;;;;;;5.38;3.85;;;4.10;76.10;;;;;;4996429;28;20034;-83
2022/02/12 04:59:18;;;;;;;5.95;4.07;;;4.10;75.50;;;;;;4994920;28;20042;-83
2022/02/12 05:01:44;;;;;;;5.78;3.95;;;4.00;75.50;;;;;;5008645;28;20040;-84
2022/02/12 05:04:10;;;;;;;6.63;3.85;;;4.00;75.50;;;;;;4993143;28;20017;-83
2022/02/12 05:06:37;;;;;;;7.32;4.25;;;4.00;75.50;;;;;;5015214;28;20092;-83
2022/02/12 05:09:03;;;;;;;7.13;4.30;;;4.00;75.50;;;;;;5004326;28;20033;-83
2022/02/12 05:11:29;;;;;;;6.15;4.30;;;4.00;75.50;;;;;;4999606;28;20026;-83
2022/02/12 05:13:57;;;;;;;6.03;3.80;;;4.00;75.50;;;;;;4995723;28;20036;-84
2022/02/12 05:16:23;;;;;;;6.10;3.67;;;3.90;75.40;;;;;;4999057;28;20029;-83
2022/02/12 05:18:50;;;;;;;7.70;3.88;;;3.90;75.50;;;;;;4988014;28;20038;-83
2022/02/12 05:21:16;;;;;;;5.22;3.20;;;3.90;75.50;;;;;;4999593;28;20437;-83
2022/02/12 05:23:44;;;;;;;4.32;3.20;;;3.90;76.10;;;;;;4981952;28;20040;-83
2022/02/12 05:26:10;;;;;;;5.05;3.40;;;3.90;75.50;;;;;;5000051;28;20113;-83
2022/02/12 05:28:36;;;;;;;5.35;3.63;;;3.90;75.50;;;;;;4994679;28;20065;-84
2022/02/12 05:31:02;;;;;;;5.35;3.65;;;3.90;75.50;;;;;;5012303;28;20026;-83
2022/02/12 05:33:28;;;;;;;5.43;4.13;;;3.90;75.50;;;;;;4990116;28;20022;-84
2022/02/12 05:35:54;;;;;;;7.60;3.67;;;3.80;75.50;;;;;;4977386;28;20415;-83
2022/02/12 05:38:19;;;;;;;6.25;4.20;;;3.80;75.40;;;;;;4987436;28;20058;-82
2022/02/12 05:40:45;;;;;;;5.90;3.75;;;3.80;75.50;;;;;;5013108;28;20033;-83
2022/02/12 05:43:11;;;;;;;5.32;3.85;;;3.80;75.50;;;;;;4994643;28;20383;-83
2022/02/12 05:45:37;;;;;;;6.00;3.53;;;3.80;75.50;;;;;;5003837;28;20430;-83
2022/02/12 05:48:03;;;;;;;5.00;3.38;;;3.80;75.50;;;;;;4998985;28;20028;-84
2022/02/12 05:50:29;;;;;;;4.95;3.78;;;3.80;75.50;;;;;;4988597;28;20030;-83
2022/02/12 05:52:58;;;;;;;5.15;3.15;;;3.80;75.50;;;;;;5004069;28;20033;-84
2022/02/12 05:55:25;;;;;;;5.72;3.53;;;3.80;75.50;;;;;;5000740;28;20033;-85
2022/02/12 05:57:59;;;;;;;5.32;3.47;;;3.80;75.50;;;;;;5005127;28;20041;-84
2022/02/12 06:00:28;;;;;;;7.53;4.10;;;3.70;75.50;;;;;;4990220;28;20037;-84
2022/02/12 06:02:54;;;;;;;6.35;3.70;;;3.70;75.40;;;;;;4985563;28;20030;-83
2022/02/12 06:05:20;;;;;;;4.45;3.17;;;3.70;75.40;;;;;;5001797;28;20247;-83
2022/02/12 06:07:46;;;;;;;6.65;3.67;;;3.70;75.40;;;;;;4995078;28;20045;-83
2022/02/12 06:10:13;;;;;;;5.82;3.40;;;3.70;75.50;;;;;;5005801;28;20029;-85
2022/02/12 06:12:40;;;;;;;5.53;3.42;;;3.70;75.50;;;;;;4991031;28;20470;-84
2022/02/12 06:15:07;;;;;;;5.47;3.40;;;3.80;75.50;;;;;;4994354;28;20034;-84
2022/02/12 06:17:33;;;;;;;4.35;3.08;;;3.70;75.60;;;;;;4985362;28;20037;-84
2022/02/12 06:19:58;;;;;;;5.65;3.53;;;3.70;75.50;;;;;;5001853;28;20038;-84
2022/02/12 06:22:27;;;;;;;5.75;3.38;;;3.70;75.50;;;;;;4975580;28;20026;-82
2022/02/12 06:24:53;;;;;;;5.65;3.30;;;3.70;75.50;;;;;;5004228;28;20034;-85
2022/02/12 06:27:19;;;;;;;6.40;3.50;;;3.70;75.50;;;;;;4994783;28;20096;-84
2022/02/12 06:29:46;;;;;;;7.00;4.20;;;3.70;75.50;;;;;;4990221;28;20462;-85
2022/02/12 06:32:12;;;;;;;6.07;4.00;;;3.70;75.50;;;;;;4994186;28;20615;-85
2022/02/12 06:34:37;;;;;;;5.30;3.60;;;3.70;75.50;;;;;;5005059;28;20061;-85
2022/02/12 06:37:04;;;;;;;9.40;4.20;;;3.70;75.50;;;;;;4986785;28;20030;-85
2022/02/12 06:39:30;;;;;;;5.30;3.55;;;3.70;75.50;;;;;;4997317;28;20033;-84
2022/02/12 06:41:56;;;;;;;5.78;3.53;;;3.70;75.50;;;;;;5002785;28;20018;-84
2022/02/12 06:44:22;;;;;;;4.82;3.40;;;3.70;75.50;;;;;;4995519;28;20167;-85
2022/02/12 06:46:49;;;;;;;5.65;3.83;;;3.70;75.60;;;;;;4994963;28;20026;-84
2022/02/12 06:49:15;;;;;;;6.70;3.75;;;3.70;75.60;;;;;;4996602;28;20116;-85
2022/02/12 06:51:41;;;;;;;6.05;3.50;;;3.70;75.60;;;;;;4999660;28;20052;-84
2022/02/12 06:54:07;;;;;;;6.72;3.72;;;3.70;75.60;;;;;;5002010;28;20026;-83
2022/02/12 06:56:33;;;;;;;5.57;3.60;;;3.60;75.50;;;;;;4988852;28;20030;-83
2022/02/12 06:58:59;;;;;;;6.45;3.63;;;3.70;75.60;;;;;;4959617;28;20445;-84
2022/02/12 07:01:26;;;;;;;5.65;3.75;;;3.70;75.60;;;;;;4998675;28;20136;-84
2022/02/12 07:03:58;;;;;;;6.53;3.50;;;3.70;75.60;;;;;;5015449;28;20053;-84
2022/02/12 07:06:24;;;;;;;5.03;3.78;;;3.70;75.60;;;;;;5006600;28;20041;-84
2022/02/12 07:08:51;;;;;;;5.53;3.75;;;3.60;75.60;;;;;;4991090;28;20029;-84
2022/02/12 07:11:18;;;;;;;6.10;3.75;;;3.60;75.60;;;;;;5000603;28;20034;-85
2022/02/12 07:13:44;;;;;;;4.95;3.58;;;3.60;75.50;;;;;;5006161;28;20071;-84
2022/02/12 07:16:10;;;;;;;5.70;3.45;;;3.60;75.60;;;;;;4995341;28;20030;-84
2022/02/12 07:18:37;;;;;;;5.68;3.55;;;3.60;75.60;;;;;;4972799;28;20114;-84
2022/02/12 07:21:03;;;;;;;5.82;3.75;;;3.60;75.60;;;;;;5009318;28;20060;-85
2022/02/12 07:23:28;;;;;;;6.18;3.60;;;3.60;75.60;;;;;;4998560;28;20129;-85
2022/02/12 07:25:54;;;;;;;7.05;4.38;;;3.60;75.60;;;;;;4997997;28;20499;-87
2022/02/12 07:28:20;;;;;;;7.03;3.70;;;3.60;75.60;;;;;;4986978;28;20065;-84
2022/02/12 07:30:47;;;;;;;5.90;3.58;;;3.60;75.60;;;;;;4990791;28;20041;-84
2022/02/12 07:33:13;;;;;;;5.63;3.67;;;3.60;75.60;;;;;;4978274;28;20030;-83
2022/02/12 07:35:39;;;;;;;5.50;3.53;;;3.60;75.60;;;;;;4999570;28;20032;-82
2022/02/12 07:38:07;;;;;;;5.28;3.60;;;3.60;75.60;;;;;;4966439;28;20510;-86
2022/02/12 07:40:33;;;;;;;5.43;3.80;;;3.60;75.60;;;;;;4978681;28;20022;-81
2022/02/12 07:42:59;;;;;;;5.93;3.75;;;3.60;75.60;;;;;;4991287;28;20108;-83
2022/02/12 07:45:35;;;;;;;4.50;3.38;;;3.60;75.60;;;;;;4991891;28;20458;-85
2022/02/12 07:48:02;;;;;;;5.05;3.90;;;3.60;75.70;;;;;;4978362;28;20060;-83
2022/02/12 07:50:28;;;;;;;4.40;3.40;;;3.60;75.70;;;;;;4966871;28;20483;-83
2022/02/12 07:52:54;;;;;;;5.28;3.35;;;3.60;75.70;;;;;;4991895;28;20033;-83
2022/02/12 07:55:20;;;;;;;5.32;3.80;;;3.60;75.70;;;;;;4969353;28;20045;-83
2022/02/12 07:57:46;;;;;;;5.03;3.10;;;3.60;75.70;;;;;;4998702;28;20038;-84
2022/02/12 08:00:14;;;;;;;5.13;3.50;;;3.60;75.70;;;;;;4974683;28;20080;-84
2022/02/12 08:02:40;;;;;;;7.07;3.85;;;3.60;75.70;;;;;;4986365;28;20022;-82
2022/02/12 08:05:07;;;;;;;7.35;3.80;;;3.60;75.70;;;;;;4972490;28;20030;-83
2022/02/12 08:07:37;;;;;;;5.50;3.78;;;3.60;75.70;;;;;;4988447;28;20029;-85
2022/02/12 08:12:52;;;;;;;4.38;3.13;;;3.60;75.80;;;;;;4989435;28;20042;-81
2022/02/12 08:15:19;;;;;;;5.85;3.47;;;3.60;75.80;;;;;;4967672;28;20030;-81
2022/02/12 08:17:45;;;;;;;6.60;4.22;;;3.60;75.80;;;;;;4982984;28;20128;-83
2022/02/12 08:20:11;;;;;;;5.15;3.33;;;3.60;75.80;;;;;;4990866;28;20102;-82
2022/02/12 08:22:37;;;;;;;5.93;3.95;;;3.60;75.80;;;;;;4992322;28;20218;-82
2022/02/12 08:25:04;;;;;;;6.60;3.40;;;3.60;76.50;;;;;;5011010;28;20132;-82
2022/02/12 08:27:30;;;;;;;4.28;3.28;;;3.60;75.90;;;;;;4972164;28;20063;-82
2022/02/12 08:29:56;;;;;;;5.68;3.72;;;3.60;75.90;;;;;;4995361;28;20058;-83
2022/02/12 08:32:23;;;;;;;5.40;3.55;;;3.60;75.90;;;;;;4991008;28;20079;-82
2022/02/12 08:34:50;;;;;;;3.95;2.95;;;3.60;75.90;;;;;;5006827;28;20121;-81
2022/02/12 08:37:16;;;;;;;4.03;2.90;;;3.60;75.90;;;;;;5006580;28;20034;-83
2022/02/12 08:39:42;;;;;;;4.55;3.15;;;3.60;76.60;;;;;;5015010;28;20079;-82
2022/02/12 08:42:08;;;;;;;5.57;3.22;;;3.60;75.90;;;;;;5007113;28;20030;-82
2022/02/12 08:44:34;;;;;;;4.28;3.03;;;3.60;76.00;;;;;;5041063;28;20029;-83
2022/02/12 08:47:00;;;;;;;4.43;3.00;;;3.60;76.00;;;;;;4991059;28;20423;-81
2022/02/12 08:49:26;;;;;;;5.38;3.15;;;3.60;76.00;;;;;;4991472;28;20378;-83
2022/02/12 08:51:52;;;;;;;4.78;3.50;;;3.70;76.10;;;;;;5014650;28;20032;-81
2022/02/12 08:54:18;;;;;;;5.18;3.25;;;3.60;76.00;;;;;;5004467;28;20022;-82
2022/02/12 08:56:45;;;;;;;5.25;3.30;;;3.60;76.00;;;;;;5010880;28;20033;-83
2022/02/12 08:59:12;;;;;;;4.82;3.10;;;3.70;76.10;;;;;;5023244;28;20030;-83
2022/02/12 09:01:40;;;;;;;4.65;2.92;;;3.70;76.10;;;;;;5023687;28;20113;-82
2022/02/12 09:04:08;;;;;;;4.78;3.22;;;3.70;76.10;;;;;;5015422;28;20029;-82
2022/02/12 09:06:34;;;;;;;4.43;2.97;;;3.70;76.10;;;;;;5031368;28;20028;-82
2022/02/12 09:09:02;;;;;;;4.72;3.30;;;3.70;76.10;;;;;;5014743;28;20025;-82
2022/02/12 09:11:29;;;;;;;6.18;3.92;;;3.70;76.10;;;;;;4997633;28;20040;-82
2022/02/12 09:13:55;;;;;;;4.05;3.05;;;3.70;76.20;;;;;;5016201;28;20033;-83
2022/02/12 09:16:25;;;;;;;5.78;3.28;;;3.70;76.20;;;;;;5021259;28;20488;-83
2022/02/12 09:18:52;;;;;;;3.88;3.08;;;3.70;76.20;;;;;;5011989;28;20030;-86
2022/02/12 09:21:18;;;;;;;4.05;2.90;;;3.80;76.30;;;;;;5017914;28;20458;-83
2022/02/12 09:23:44;;;;;;;4.20;2.80;;;3.80;76.30;;;;;;5017657;28;20028;-84
2022/02/12 09:26:11;;;;;;;5.90;3.33;;;3.80;76.30;;;;;;5024178;28;20025;-82
2022/02/12 09:28:37;;;;;;;5.28;2.90;;;3.80;76.30;;;;;;5008305;28;20111;-84
2022/02/12 09:31:02;;;;;;;4.95;3.10;;;3.80;76.30;;;;;;5013555;28;20030;-82
2022/02/12 09:33:28;;;;;;;8.68;3.83;;;3.80;76.30;;;;;;5006952;28;20455;-81
2022/02/12 09:35:56;;;;;;;5.22;3.13;;;3.80;76.30;;;;;;5024011;28;20112;-82
2022/02/12 09:38:26;;;;;;;4.20;2.92;;;3.80;76.40;;;;;;5013174;28;20030;-83
2022/02/12 09:40:56;;;;;;;3.95;2.80;;;3.90;76.50;;;;;;5022263;28;20120;-82
2022/02/12 09:43:24;;;;;;;4.65;3.20;;;3.90;76.50;;;;;;5013605;28;20045;-84
2022/02/12 09:46:18;;;;;;;3.95;2.90;;;3.90;76.50;;;;;;5005210;28;20072;-83
2022/02/12 09:48:46;;;;;;;3.92;2.90;;;3.90;76.50;;;;;;4998206;28;20033;-82
2022/02/12 09:51:12;;;;;;;4.15;3.00;;;3.90;76.50;;;;;;5011502;28;20022;-82
2022/02/12 09:53:39;;;;;;;5.13;3.10;;;4.00;76.50;;;;;;5027873;28;20128;-86
2022/02/12 09:56:05;;;;;;;4.68;3.03;;;4.00;76.60;;;;;;5017115;28;20024;-85
2022/02/12 09:58:31;;;;;;;3.47;2.80;;;4.00;76.60;;;;;;5010401;28;20072;-84
2022/02/12 10:00:57;;;;;;;3.75;2.67;;;4.10;76.70;;;;;;5018746;28;20050;-83
2022/02/12 10:03:23;;;;;;;3.92;2.90;;;4.10;76.70;;;;;;5002574;28;20041;-83
2022/02/12 10:05:51;;;;;;;4.32;3.05;;;4.10;76.60;;;;;;5010789;28;20030;-83
2022/02/12 10:08:17;;;;;;;3.78;2.75;;;4.20;76.70;;;;;;5004939;28;20547;-84
2022/02/12 10:10:45;;;;;;;4.90;3.00;;;4.20;76.70;;;;;;5027276;28;20021;-85
2022/02/12 10:13:27;;;;;;;5.95;2.90;;;4.20;76.70;;;;;;5014706;28;20022;-83
2022/02/12 10:15:55;;;;;;;4.18;2.70;;;4.30;76.80;;;;;;5021147;28;20470;-82
2022/02/12 10:18:26;;;;;;;5.03;2.78;;;4.30;76.80;;;;;;5007189;28;20045;-82
2022/02/12 10:20:54;;;;;;;4.15;2.80;;;4.40;76.80;;;;;;5013867;28;20097;-83
2022/02/12 10:23:25;;;;;;;4.57;2.72;;;4.40;76.80;;;;;;5011292;28;20402;-83
2022/02/12 10:26:06;;;;;;;4.90;3.13;;;4.50;76.90;;;;;;5007375;28;20029;-80
2022/02/12 10:28:42;;;;;;;4.22;2.80;;;4.50;76.90;;;;;;5015665;28;20054;-81
2022/02/12 10:31:10;;;;;;;5.00;3.13;;;4.60;77.00;;;;;;5015713;28;20029;-81
2022/02/12 10:33:45;;;;;;;3.17;2.60;;;4.60;76.90;;;;;;5022405;28;20030;-80
2022/02/12 10:36:16;;;;;;;3.83;2.75;;;4.60;77.00;;;;;;5013334;28;20030;-82
2022/02/12 10:39:00;;;;;;;3.05;2.28;;;4.70;76.90;;;;;;5006795;28;20041;-85
2022/02/12 10:41:26;;;;;;;4.30;2.55;;;4.70;77.00;;;;;;5019267;28;20026;-81
2022/02/12 10:43:56;;;;;;;2.95;2.35;;;4.80;77.00;;;;;;5010078;28;20053;-81
2022/02/12 10:46:23;;;;;;;2.85;2.13;;;4.80;76.90;;;;;;5017798;28;20116;-81
2022/02/12 10:48:50;;;;;;;3.95;2.42;;;4.90;77.00;;;;;;5017159;28;20121;-82
2022/02/12 10:51:17;;;;;;;3.08;2.35;;;4.90;77.00;;;;;;5017319;28;20429;-81
2022/02/12 10:54:17;;;;;;;3.97;2.40;;;5.00;77.10;;;;;;5033788;28;20079;-84
2022/02/12 10:56:44;;;;;;;3.70;2.50;;;5.00;77.20;;;;;;5007881;28;20030;-83
2022/02/12 10:59:13;;;;;;;3.25;2.40;;;5.00;77.00;;;;;;5026689;28;20033;-82
2022/02/12 11:01:40;;;;;;;3.78;2.90;;;5.00;77.00;;;;;;5016330;28;20108;-81
2022/02/12 11:04:07;;;;;;;3.33;2.72;;;5.10;77.10;;;;;;5023609;28;20057;-81
2022/02/12 11:06:35;;;;;;;3.33;2.25;;;5.10;77.10;;;;;;5022414;28;20077;-81
2022/02/12 11:09:02;;;;;;;5.00;2.90;;;5.20;77.10;;;;;;5026241;28;20100;-80
2022/02/12 11:11:29;;;;;;;3.30;2.42;;;5.20;77.20;;;;;;5017025;28;20033;-81
2022/02/12 11:13:58;;;;;;;3.70;2.40;;;5.30;77.20;;;;;;5015373;28;20049;-80
2022/02/12 11:16:25;;;;;;;5.05;2.58;;;5.30;77.30;;;;;;5007504;28;20061;-81
2022/02/12 11:18:52;;;;;;;5.97;3.20;;;5.30;77.30;;;;;;5023123;28;20033;-81
2022/02/12 11:21:18;;;;;;;4.55;2.75;;;5.30;77.30;;;;;;4997563;28;20034;-81
2022/02/12 11:24:04;;;;;;;3.70;2.65;;;5.40;77.40;;;;;;4987702;28;20039;-87
2022/02/12 11:26:47;;;;;;;3.30;2.28;;;5.40;77.60;;;;;;5017673;28;20037;-81
2022/02/12 11:29:43;;;;;;;3.28;2.40;;;5.40;77.50;;;;;;5014825;28;20383;-80
2022/02/12 11:32:15;;;;;;;3.28;2.45;;;5.40;77.60;;;;;;5023846;28;20053;-81
2022/02/12 11:34:43;;;;;;;4.38;2.55;;;5.50;77.50;;;;;;5016298;28;20087;-81
2022/02/12 11:37:17;;;;;;;4.03;2.65;;;5.50;77.60;;;;;;5015814;28;20037;-80
2022/02/12 11:40:14;;;;;;;4.80;2.60;;;5.50;77.70;;;;;;5021462;28;20030;-81
2022/02/12 11:43:06;;;;;;;3.53;2.50;;;5.50;77.80;;;;;;5008587;28;20145;-80
2022/02/12 11:45:48;;;;;;;4.05;2.40;;;5.60;77.80;;;;;;5013601;28;20038;-80
2022/02/12 11:48:26;;;;;;;3.90;2.40;;;5.60;77.80;;;;;;5009699;28;20144;-81
2022/02/12 11:50:59;;;;;;;4.85;2.30;;;5.70;77.90;;;;;;5004871;28;20021;-80
2022/02/12 11:53:54;;;;;;;3.42;2.40;;;5.60;77.80;;;;;;5021062;28;20033;-81
2022/02/12 11:56:20;;;;;;;3.30;2.58;;;5.70;78.00;;;;;;5012907;28;20026;-80
2022/02/12 11:58:45;;;;;;;2.90;2.33;;;5.70;77.90;;;;;;5023350;28;20038;-80
2022/02/12 12:01:32;;;;;;;3.92;2.53;;;5.80;78.00;;;;;;5012729;28;20066;-82
2022/02/12 12:04:06;;;;;;;4.50;2.40;;;5.80;78.10;;;;;;5007633;28;20036;-80
2022/02/12 12:06:37;;;;;;;4.68;3.00;;;5.80;78.00;;;;;;5024049;28;20025;-80
2022/02/12 12:09:13;;;;;;;5.22;2.45;;;5.80;78.00;;;;;;5020703;28;20516;-83
2022/02/12 12:11:41;;;;;;;4.25;2.65;;;5.90;78.20;;;;;;5020399;28;20056;-80
2022/02/12 12:14:22;;;;;;;4.43;2.63;;;6.00;78.20;;;;;;5015728;28;20021;-79
2022/02/12 12:16:58;;;;;;;4.22;2.50;;;6.00;78.30;;;;;;5024022;28;20431;-81
2022/02/12 12:19:27;;;;;;;3.80;2.38;;;6.00;78.20;;;;;;5007446;28;20121;-80
2022/02/12 12:21:58;;;;;;;4.28;2.55;;;6.00;78.20;;;;;;5015207;28;20374;-81
2022/02/12 12:24:24;;;;;;;4.50;2.42;;;6.10;78.20;;;;;;5021612;28;20106;-81
2022/02/12 12:26:50;;;;;;;3.25;2.53;;;6.20;78.30;;;;;;5021916;28;20034;-79
2022/02/12 12:32:14;;;;;;;4.20;2.85;;;6.30;78.40;;;;;;5026453;28;20045;-83
2022/02/12 12:35:03;;;;;;;3.50;2.50;;;6.30;78.30;;;;;;5024405;28;20112;-80
2022/02/12 12:37:51;;;;;;;3.35;2.50;;;6.30;78.40;;;;;;5025486;28;20032;-80
2022/02/12 12:40:26;;;;;;;3.42;2.65;;;6.40;78.30;;;;;;5017575;28;20054;-80
2022/02/12 12:43:05;;;;;;;3.28;2.72;;;6.40;78.30;;;;;;5032789;28;20112;-79
2022/02/12 12:45:31;;;;;;;3.30;2.30;;;6.50;78.40;;;;;;5015718;28;20037;-79
2022/02/12 12:47:57;;;;;;;5.78;2.95;;;6.50;78.30;;;;;;4992170;28;20037;-80
2022/02/12 12:50:23;;;;;;;3.38;2.55;;;6.60;78.30;;;;;;5003951;28;20386;-82
2022/02/12 12:53:04;;;;;;;4.03;2.60;;;6.70;78.40;;;;;;5009942;28;20480;-80
2022/02/12 12:55:30;;;;;;;4.47;2.75;;;6.70;78.40;;;;;;5017749;28;20025;-81
2022/02/12 12:57:56;;;;;;;3.38;2.60;;;6.80;78.30;;;;;;5014398;28;20061;-81
2022/02/12 13:00:24;;;;;;;3.88;2.40;;;6.80;78.30;;;;;;4988996;28;20057;-80
2022/02/12 13:02:55;;;;;;;3.38;2.58;;;6.90;78.40;;;;;;5017542;28;20049;-86
2022/02/12 13:05:22;;;;;;;3.78;2.58;;;6.90;78.40;;;;;;5011042;28;20529;-81
2022/02/12 13:07:50;;;;;;;3.50;2.45;;;7.00;78.40;;;;;;5024042;28;20465;-80
2022/02/12 13:10:17;;;;;;;2.83;2.17;;;7.00;78.40;;;;;;5018051;28;20025;-80
2022/02/12 13:12:43;;;;;;;3.58;2.65;;;7.10;78.50;;;;;;5015128;28;20072;-80
2022/02/12 13:15:15;;;;;;;3.58;2.38;;;7.20;78.50;;;;;;5008916;28;20037;-82